sensor_id;sensor_type;location;lat;lon;timestamp;P1;durP1;ratioP1;P2;durP2;ratioP2
71513;SDS011;59335;46.652;21.272;2023-05-16T00:01:04;12.60;;;4.70;;
71513;SDS011;59335;46.652;21.272;2023-05-16T00:04:07;13.45;;;5.00;;
71513;SDS011;59335;46.652;21.272;2023-05-16T00:07:10;14.98;;;6.38;;
71513;SDS011;59335;46.652;21.272;2023-05-16T00:10:12;11.50;;;5.70;;
71513;SDS011;59335;46.652;21.272;2023-05-16T00:13:15;14.23;;;6.38;;
71513;SDS011;59335;46.652;21.272;2023-05-16T00:16:20;11.70;;;4.82;;
71513;SDS011;59335;46.652;21.272;2023-05-16T00:19:23;11.10;;;5.13;;
71513;SDS011;59335;46.652;21.272;2023-05-16T00:22:27;10.70;;;5.15;;
71513;SDS011;59335;46.652;21.272;2023-05-16T00:25:30;10.63;;;4.60;;
71513;SDS011;59335;46.652;21.272;2023-05-16T00:28:33;11.75;;;5.05;;
71513;SDS011;59335;46.652;21.272;2023-05-16T00:31:35;10.27;;;5.15;;
71513;SDS011;59335;46.652;21.272;2023-05-16T00:34:38;9.32;;;4.38;;
71513;SDS011;59335;46.652;21.272;2023-05-16T00:37:40;9.48;;;4.53;;
71513;SDS011;59335;46.652;21.272;2023-05-16T00:40:43;11.30;;;4.93;;
71513;SDS011;59335;46.652;21.272;2023-05-16T00:43:46;9.93;;;5.05;;
71513;SDS011;59335;46.652;21.272;2023-05-16T00:46:49;10.80;;;5.13;;
71513;SDS011;59335;46.652;21.272;2023-05-16T00:49:52;10.80;;;4.80;;
71513;SDS011;59335;46.652;21.272;2023-05-16T00:52:55;10.60;;;5.03;;
71513;SDS011;59335;46.652;21.272;2023-05-16T00:55:58;11.67;;;4.40;;
71513;SDS011;59335;46.652;21.272;2023-05-16T00:59:01;10.65;;;4.78;;
71513;SDS011;59335;46.652;21.272;2023-05-16T01:02:05;10.52;;;4.80;;
71513;SDS011;59335;46.652;21.272;2023-05-16T01:05:07;9.23;;;4.60;;
71513;SDS011;59335;46.652;21.272;2023-05-16T01:08:10;10.38;;;4.40;;
71513;SDS011;59335;46.652;21.272;2023-05-16T01:11:21;9.83;;;4.60;;
71513;SDS011;59335;46.652;21.272;2023-05-16T01:17:50;9.43;;;4.32;;
71513;SDS011;59335;46.652;21.272;2023-05-16T01:20:59;9.25;;;4.10;;
71513;SDS011;59335;46.652;21.272;2023-05-16T01:27:37;8.40;;;4.20;;
71513;SDS011;59335;46.652;21.272;2023-05-16T01:30:41;8.35;;;4.03;;
71513;SDS011;59335;46.652;21.272;2023-05-16T01:33:44;11.35;;;4.72;;
71513;SDS011;59335;46.652;21.272;2023-05-16T01:36:52;9.63;;;5.07;;
71513;SDS011;59335;46.652;21.272;2023-05-16T01:40:35;10.70;;;5.07;;
71513;SDS011;59335;46.652;21.272;2023-05-16T01:43:47;9.80;;;5.10;;
71513;SDS011;59335;46.652;21.272;2023-05-16T01:46:54;8.18;;;4.43;;
71513;SDS011;59335;46.652;21.272;2023-05-16T01:50:03;10.63;;;4.80;;
71513;SDS011;59335;46.652;21.272;2023-05-16T01:53:18;11.00;;;4.70;;
71513;SDS011;59335;46.652;21.272;2023-05-16T01:56:24;9.20;;;4.80;;
71513;SDS011;59335;46.652;21.272;2023-05-16T01:59:27;9.53;;;5.10;;
71513;SDS011;59335;46.652;21.272;2023-05-16T02:02:30;12.18;;;5.93;;
71513;SDS011;59335;46.652;21.272;2023-05-16T02:05:33;9.85;;;6.10;;
71513;SDS011;59335;46.652;21.272;2023-05-16T02:08:36;10.25;;;5.65;;
71513;SDS011;59335;46.652;21.272;2023-05-16T02:11:39;9.88;;;5.43;;
71513;SDS011;59335;46.652;21.272;2023-05-16T02:14:42;9.70;;;5.73;;
71513;SDS011;59335;46.652;21.272;2023-05-16T02:17:44;11.85;;;6.03;;
71513;SDS011;59335;46.652;21.272;2023-05-16T02:20:50;13.50;;;7.18;;
71513;SDS011;59335;46.652;21.272;2023-05-16T02:23:53;11.25;;;6.45;;
71513;SDS011;59335;46.652;21.272;2023-05-16T02:26:56;15.02;;;7.57;;
71513;SDS011;59335;46.652;21.272;2023-05-16T02:29:58;14.77;;;7.50;;
71513;SDS011;59335;46.652;21.272;2023-05-16T02:33:01;14.10;;;6.78;;
71513;SDS011;59335;46.652;21.272;2023-05-16T02:36:04;12.52;;;6.70;;
71513;SDS011;59335;46.652;21.272;2023-05-16T02:39:07;11.63;;;5.75;;
71513;SDS011;59335;46.652;21.272;2023-05-16T02:42:11;10.88;;;6.00;;
71513;SDS011;59335;46.652;21.272;2023-05-16T02:45:14;15.20;;;7.57;;
71513;SDS011;59335;46.652;21.272;2023-05-16T02:48:18;13.88;;;6.82;;
71513;SDS011;59335;46.652;21.272;2023-05-16T02:51:21;12.43;;;6.80;;
71513;SDS011;59335;46.652;21.272;2023-05-16T02:54:25;13.98;;;6.40;;
71513;SDS011;59335;46.652;21.272;2023-05-16T02:57:28;13.38;;;6.50;;
71513;SDS011;59335;46.652;21.272;2023-05-16T03:00:30;13.47;;;6.20;;
71513;SDS011;59335;46.652;21.272;2023-05-16T03:03:33;14.82;;;7.20;;
71513;SDS011;59335;46.652;21.272;2023-05-16T03:06:37;11.90;;;6.88;;
71513;SDS011;59335;46.652;21.272;2023-05-16T03:09:40;13.18;;;6.75;;
71513;SDS011;59335;46.652;21.272;2023-05-16T03:12:43;12.18;;;7.05;;
71513;SDS011;59335;46.652;21.272;2023-05-16T03:15:47;12.93;;;6.30;;
71513;SDS011;59335;46.652;21.272;2023-05-16T03:18:49;13.35;;;6.68;;
71513;SDS011;59335;46.652;21.272;2023-05-16T03:21:52;10.10;;;6.43;;
71513;SDS011;59335;46.652;21.272;2023-05-16T03:24:54;12.27;;;6.88;;
71513;SDS011;59335;46.652;21.272;2023-05-16T03:27:57;11.85;;;6.43;;
71513;SDS011;59335;46.652;21.272;2023-05-16T03:31:00;14.20;;;6.60;;
71513;SDS011;59335;46.652;21.272;2023-05-16T03:34:03;10.95;;;6.10;;
71513;SDS011;59335;46.652;21.272;2023-05-16T03:37:05;12.02;;;6.05;;
71513;SDS011;59335;46.652;21.272;2023-05-16T03:40:08;13.68;;;6.57;;
71513;SDS011;59335;46.652;21.272;2023-05-16T03:43:12;12.48;;;6.55;;
71513;SDS011;59335;46.652;21.272;2023-05-16T03:46:15;14.07;;;6.17;;
71513;SDS011;59335;46.652;21.272;2023-05-16T03:49:19;13.15;;;6.22;;
71513;SDS011;59335;46.652;21.272;2023-05-16T03:52:22;11.27;;;6.38;;
71513;SDS011;59335;46.652;21.272;2023-05-16T03:55:25;11.70;;;6.13;;
71513;SDS011;59335;46.652;21.272;2023-05-16T03:58:28;12.80;;;6.35;;
71513;SDS011;59335;46.652;21.272;2023-05-16T04:01:31;11.63;;;6.63;;
71513;SDS011;59335;46.652;21.272;2023-05-16T04:04:33;12.60;;;6.05;;
71513;SDS011;59335;46.652;21.272;2023-05-16T04:07:36;12.73;;;6.35;;
71513;SDS011;59335;46.652;21.272;2023-05-16T04:10:39;13.30;;;6.10;;
71513;SDS011;59335;46.652;21.272;2023-05-16T04:13:42;9.35;;;5.90;;
71513;SDS011;59335;46.652;21.272;2023-05-16T04:16:44;10.07;;;5.83;;
71513;SDS011;59335;46.652;21.272;2023-05-16T04:19:47;11.40;;;6.32;;
71513;SDS011;59335;46.652;21.272;2023-05-16T04:22:50;12.32;;;6.05;;
71513;SDS011;59335;46.652;21.272;2023-05-16T04:25:53;10.90;;;5.82;;
71513;SDS011;59335;46.652;21.272;2023-05-16T04:28:57;10.52;;;6.05;;
71513;SDS011;59335;46.652;21.272;2023-05-16T04:32:01;10.10;;;5.77;;
71513;SDS011;59335;46.652;21.272;2023-05-16T04:35:04;12.80;;;6.35;;
71513;SDS011;59335;46.652;21.272;2023-05-16T04:38:10;12.45;;;6.43;;
71513;SDS011;59335;46.652;21.272;2023-05-16T04:41:13;10.18;;;5.85;;
71513;SDS011;59335;46.652;21.272;2023-05-16T04:44:15;11.50;;;6.30;;
71513;SDS011;59335;46.652;21.272;2023-05-16T04:47:18;11.40;;;5.97;;
71513;SDS011;59335;46.652;21.272;2023-05-16T04:50:21;11.55;;;6.03;;
71513;SDS011;59335;46.652;21.272;2023-05-16T04:53:24;12.68;;;6.32;;
71513;SDS011;59335;46.652;21.272;2023-05-16T04:56:26;10.75;;;5.82;;
71513;SDS011;59335;46.652;21.272;2023-05-16T04:59:29;10.95;;;5.80;;
71513;SDS011;59335;46.652;21.272;2023-05-16T05:02:32;12.40;;;6.10;;
71513;SDS011;59335;46.652;21.272;2023-05-16T05:05:34;11.20;;;5.95;;
71513;SDS011;59335;46.652;21.272;2023-05-16T05:08:37;12.73;;;6.30;;
71513;SDS011;59335;46.652;21.272;2023-05-16T05:11:40;12.27;;;5.78;;
71513;SDS011;59335;46.652;21.272;2023-05-16T05:14:43;11.00;;;6.10;;
71513;SDS011;59335;46.652;21.272;2023-05-16T05:17:45;11.43;;;5.87;;
71513;SDS011;59335;46.652;21.272;2023-05-16T05:20:48;10.35;;;5.88;;
71513;SDS011;59335;46.652;21.272;2023-05-16T05:23:51;11.50;;;5.90;;
71513;SDS011;59335;46.652;21.272;2023-05-16T05:26:54;9.63;;;5.97;;
71513;SDS011;59335;46.652;21.272;2023-05-16T05:29:57;10.80;;;6.00;;
71513;SDS011;59335;46.652;21.272;2023-05-16T05:33:00;19.10;;;8.70;;
71513;SDS011;59335;46.652;21.272;2023-05-16T05:36:02;13.32;;;7.53;;
71513;SDS011;59335;46.652;21.272;2023-05-16T05:39:05;16.13;;;7.30;;
71513;SDS011;59335;46.652;21.272;2023-05-16T05:42:08;12.98;;;6.65;;
71513;SDS011;59335;46.652;21.272;2023-05-16T05:45:10;15.40;;;7.53;;
71513;SDS011;59335;46.652;21.272;2023-05-16T05:48:14;18.63;;;9.37;;
71513;SDS011;59335;46.652;21.272;2023-05-16T05:51:18;14.95;;;7.82;;
71513;SDS011;59335;46.652;21.272;2023-05-16T05:54:22;19.02;;;8.20;;
71513;SDS011;59335;46.652;21.272;2023-05-16T05:57:26;15.45;;;8.15;;
71513;SDS011;59335;46.652;21.272;2023-05-16T06:00:29;17.02;;;8.25;;
71513;SDS011;59335;46.652;21.272;2023-05-16T06:03:32;18.40;;;9.13;;
71513;SDS011;59335;46.652;21.272;2023-05-16T06:06:35;16.55;;;8.20;;
71513;SDS011;59335;46.652;21.272;2023-05-16T06:09:38;17.55;;;7.47;;
71513;SDS011;59335;46.652;21.272;2023-05-16T06:16:17;20.63;;;11.40;;
71513;SDS011;59335;46.652;21.272;2023-05-16T06:19:19;25.43;;;11.97;;
71513;SDS011;59335;46.652;21.272;2023-05-16T06:22:22;23.20;;;12.57;;
71513;SDS011;59335;46.652;21.272;2023-05-16T06:25:26;21.83;;;11.15;;
71513;SDS011;59335;46.652;21.272;2023-05-16T06:28:29;18.63;;;9.52;;
71513;SDS011;59335;46.652;21.272;2023-05-16T06:31:33;18.38;;;9.20;;
71513;SDS011;59335;46.652;21.272;2023-05-16T06:34:35;15.30;;;8.93;;
71513;SDS011;59335;46.652;21.272;2023-05-16T06:37:38;18.80;;;10.57;;
71513;SDS011;59335;46.652;21.272;2023-05-16T06:40:44;18.10;;;10.50;;
71513;SDS011;59335;46.652;21.272;2023-05-16T06:43:47;18.67;;;9.55;;
71513;SDS011;59335;46.652;21.272;2023-05-16T06:46:50;17.58;;;8.95;;
71513;SDS011;59335;46.652;21.272;2023-05-16T06:49:53;17.10;;;8.77;;
71513;SDS011;59335;46.652;21.272;2023-05-16T06:52:56;17.88;;;8.68;;
71513;SDS011;59335;46.652;21.272;2023-05-16T06:56:03;18.77;;;8.85;;
71513;SDS011;59335;46.652;21.272;2023-05-16T06:59:18;16.50;;;8.65;;
71513;SDS011;59335;46.652;21.272;2023-05-16T07:02:21;18.63;;;8.50;;
71513;SDS011;59335;46.652;21.272;2023-05-16T07:05:24;13.83;;;8.03;;
71513;SDS011;59335;46.652;21.272;2023-05-16T07:08:27;16.90;;;9.65;;
71513;SDS011;59335;46.652;21.272;2023-05-16T07:11:30;19.02;;;8.30;;
71513;SDS011;59335;46.652;21.272;2023-05-16T07:14:34;14.57;;;8.50;;
71513;SDS011;59335;46.652;21.272;2023-05-16T07:17:37;19.80;;;8.10;;
71513;SDS011;59335;46.652;21.272;2023-05-16T07:20:40;17.83;;;8.30;;
71513;SDS011;59335;46.652;21.272;2023-05-16T07:23:46;15.55;;;7.90;;
71513;SDS011;59335;46.652;21.272;2023-05-16T07:26:53;14.20;;;8.35;;
71513;SDS011;59335;46.652;21.272;2023-05-16T07:30:01;16.73;;;7.93;;
71513;SDS011;59335;46.652;21.272;2023-05-16T07:33:04;16.98;;;8.07;;
71513;SDS011;59335;46.652;21.272;2023-05-16T07:36:07;15.63;;;8.03;;
71513;SDS011;59335;46.652;21.272;2023-05-16T07:39:18;15.13;;;7.40;;
71513;SDS011;59335;46.652;21.272;2023-05-16T07:42:21;14.55;;;7.70;;
71513;SDS011;59335;46.652;21.272;2023-05-16T07:45:24;16.15;;;7.55;;
71513;SDS011;59335;46.652;21.272;2023-05-16T07:48:28;13.55;;;7.47;;
71513;SDS011;59335;46.652;21.272;2023-05-16T07:51:30;13.03;;;7.10;;
71513;SDS011;59335;46.652;21.272;2023-05-16T07:54:34;14.50;;;7.55;;
71513;SDS011;59335;46.652;21.272;2023-05-16T07:57:43;13.60;;;7.65;;
71513;SDS011;59335;46.652;21.272;2023-05-16T08:00:46;15.65;;;7.40;;
71513;SDS011;59335;46.652;21.272;2023-05-16T08:03:50;14.73;;;7.43;;
71513;SDS011;59335;46.652;21.272;2023-05-16T08:06:55;14.80;;;7.70;;
71513;SDS011;59335;46.652;21.272;2023-05-16T08:09:58;16.20;;;7.35;;
71513;SDS011;59335;46.652;21.272;2023-05-16T08:13:01;16.13;;;7.45;;
71513;SDS011;59335;46.652;21.272;2023-05-16T08:16:04;17.08;;;6.68;;
71513;SDS011;59335;46.652;21.272;2023-05-16T08:19:07;15.43;;;7.82;;
71513;SDS011;59335;46.652;21.272;2023-05-16T08:22:10;19.20;;;7.57;;
71513;SDS011;59335;46.652;21.272;2023-05-16T08:25:13;14.55;;;7.45;;
71513;SDS011;59335;46.652;21.272;2023-05-16T08:28:16;13.60;;;7.22;;
71513;SDS011;59335;46.652;21.272;2023-05-16T08:31:18;14.55;;;7.88;;
71513;SDS011;59335;46.652;21.272;2023-05-16T08:34:22;11.60;;;7.10;;
71513;SDS011;59335;46.652;21.272;2023-05-16T08:37:25;13.07;;;6.93;;
71513;SDS011;59335;46.652;21.272;2023-05-16T08:40:28;14.05;;;7.40;;
71513;SDS011;59335;46.652;21.272;2023-05-16T08:43:30;14.13;;;7.35;;
71513;SDS011;59335;46.652;21.272;2023-05-16T08:46:34;15.70;;;7.28;;
71513;SDS011;59335;46.652;21.272;2023-05-16T08:49:39;14.38;;;7.30;;
71513;SDS011;59335;46.652;21.272;2023-05-16T08:52:45;14.40;;;6.97;;
71513;SDS011;59335;46.652;21.272;2023-05-16T08:55:56;19.15;;;7.85;;
71513;SDS011;59335;46.652;21.272;2023-05-16T08:59:05;18.25;;;7.63;;
71513;SDS011;59335;46.652;21.272;2023-05-16T09:02:11;20.38;;;7.65;;
71513;SDS011;59335;46.652;21.272;2023-05-16T09:05:16;21.33;;;7.20;;
71513;SDS011;59335;46.652;21.272;2023-05-16T09:08:21;19.80;;;7.97;;
71513;SDS011;59335;46.652;21.272;2023-05-16T09:11:24;21.38;;;7.60;;
71513;SDS011;59335;46.652;21.272;2023-05-16T09:14:27;21.15;;;7.30;;
71513;SDS011;59335;46.652;21.272;2023-05-16T09:17:39;18.85;;;7.40;;
71513;SDS011;59335;46.652;21.272;2023-05-16T09:20:46;20.35;;;7.15;;
71513;SDS011;59335;46.652;21.272;2023-05-16T09:23:51;18.27;;;7.60;;
71513;SDS011;59335;46.652;21.272;2023-05-16T09:26:54;15.40;;;6.25;;
71513;SDS011;59335;46.652;21.272;2023-05-16T09:29:58;16.55;;;7.30;;
71513;SDS011;59335;46.652;21.272;2023-05-16T09:33:02;15.93;;;6.57;;
71513;SDS011;59335;46.652;21.272;2023-05-16T09:36:08;16.02;;;6.80;;
71513;SDS011;59335;46.652;21.272;2023-05-16T09:39:11;17.87;;;6.53;;
71513;SDS011;59335;46.652;21.272;2023-05-16T09:42:17;20.05;;;7.40;;
71513;SDS011;59335;46.652;21.272;2023-05-16T09:45:21;16.10;;;6.97;;
71513;SDS011;59335;46.652;21.272;2023-05-16T09:48:24;20.08;;;6.63;;
71513;SDS011;59335;46.652;21.272;2023-05-16T09:51:30;15.85;;;7.15;;
71513;SDS011;59335;46.652;21.272;2023-05-16T09:54:36;17.57;;;7.03;;
71513;SDS011;59335;46.652;21.272;2023-05-16T09:57:40;14.40;;;6.53;;
71513;SDS011;59335;46.652;21.272;2023-05-16T10:00:43;16.80;;;7.30;;
71513;SDS011;59335;46.652;21.272;2023-05-16T10:03:48;14.35;;;6.72;;
71513;SDS011;59335;46.652;21.272;2023-05-16T10:06:53;16.30;;;7.43;;
71513;SDS011;59335;46.652;21.272;2023-05-16T10:10:04;13.90;;;6.80;;
71513;SDS011;59335;46.652;21.272;2023-05-16T10:13:08;15.93;;;6.60;;
71513;SDS011;59335;46.652;21.272;2023-05-16T10:16:13;15.38;;;6.70;;
71513;SDS011;59335;46.652;21.272;2023-05-16T10:19:16;19.65;;;6.82;;
71513;SDS011;59335;46.652;21.272;2023-05-16T10:22:22;17.08;;;6.40;;
71513;SDS011;59335;46.652;21.272;2023-05-16T10:28:37;16.05;;;6.10;;
71513;SDS011;59335;46.652;21.272;2023-05-16T10:31:41;15.15;;;6.00;;
71513;SDS011;59335;46.652;21.272;2023-05-16T10:34:46;17.73;;;5.97;;
71513;SDS011;59335;46.652;21.272;2023-05-16T10:37:49;14.98;;;5.72;;
71513;SDS011;59335;46.652;21.272;2023-05-16T10:40:52;13.47;;;5.60;;
71513;SDS011;59335;46.652;21.272;2023-05-16T10:43:56;19.67;;;6.82;;
71513;SDS011;59335;46.652;21.272;2023-05-16T10:47:00;16.92;;;6.35;;
71513;SDS011;59335;46.652;21.272;2023-05-16T10:50:05;19.40;;;6.15;;
71513;SDS011;59335;46.652;21.272;2023-05-16T10:56:21;16.70;;;5.80;;
71513;SDS011;59335;46.652;21.272;2023-05-16T10:59:27;19.52;;;6.72;;
71513;SDS011;59335;46.652;21.272;2023-05-16T11:02:30;14.60;;;6.43;;
71513;SDS011;59335;46.652;21.272;2023-05-16T11:05:35;17.80;;;6.28;;
71513;SDS011;59335;46.652;21.272;2023-05-16T11:08:56;14.50;;;5.97;;
71513;SDS011;59335;46.652;21.272;2023-05-16T11:12:23;16.57;;;6.47;;
71513;SDS011;59335;46.652;21.272;2023-05-16T11:15:49;19.35;;;6.28;;
71513;SDS011;59335;46.652;21.272;2023-05-16T11:18:52;15.18;;;5.93;;
71513;SDS011;59335;46.652;21.272;2023-05-16T11:25:35;14.57;;;5.85;;
71513;SDS011;59335;46.652;21.272;2023-05-16T11:28:43;14.20;;;6.23;;
71513;SDS011;59335;46.652;21.272;2023-05-16T11:31:51;14.13;;;6.20;;
71513;SDS011;59335;46.652;21.272;2023-05-16T11:34:55;16.42;;;6.30;;
71513;SDS011;59335;46.652;21.272;2023-05-16T11:37:59;14.32;;;6.18;;
71513;SDS011;59335;46.652;21.272;2023-05-16T11:41:05;21.25;;;6.63;;
71513;SDS011;59335;46.652;21.272;2023-05-16T11:44:12;16.80;;;6.60;;
71513;SDS011;59335;46.652;21.272;2023-05-16T11:47:15;14.48;;;6.40;;
71513;SDS011;59335;46.652;21.272;2023-05-16T11:50:19;14.65;;;6.32;;
71513;SDS011;59335;46.652;21.272;2023-05-16T11:53:23;17.45;;;5.75;;
71513;SDS011;59335;46.652;21.272;2023-05-16T11:56:26;18.30;;;6.85;;
71513;SDS011;59335;46.652;21.272;2023-05-16T11:59:29;15.93;;;5.80;;
71513;SDS011;59335;46.652;21.272;2023-05-16T12:02:33;18.17;;;5.57;;
71513;SDS011;59335;46.652;21.272;2023-05-16T12:05:36;17.27;;;5.57;;
71513;SDS011;59335;46.652;21.272;2023-05-16T12:08:39;16.45;;;5.88;;
71513;SDS011;59335;46.652;21.272;2023-05-16T12:11:51;12.35;;;5.38;;
71513;SDS011;59335;46.652;21.272;2023-05-16T12:14:54;13.43;;;5.50;;
71513;SDS011;59335;46.652;21.272;2023-05-16T12:17:57;13.75;;;5.40;;
71513;SDS011;59335;46.652;21.272;2023-05-16T12:21:00;13.68;;;5.90;;
71513;SDS011;59335;46.652;21.272;2023-05-16T12:24:02;15.23;;;5.93;;
71513;SDS011;59335;46.652;21.272;2023-05-16T12:27:06;14.88;;;6.43;;
71513;SDS011;59335;46.652;21.272;2023-05-16T12:30:09;15.07;;;5.90;;
71513;SDS011;59335;46.652;21.272;2023-05-16T12:33:14;14.18;;;5.85;;
71513;SDS011;59335;46.652;21.272;2023-05-16T12:36:18;16.00;;;6.32;;
71513;SDS011;59335;46.652;21.272;2023-05-16T12:39:21;15.50;;;6.30;;
71513;SDS011;59335;46.652;21.272;2023-05-16T12:42:27;16.10;;;6.28;;
71513;SDS011;59335;46.652;21.272;2023-05-16T12:45:31;14.37;;;6.00;;
71513;SDS011;59335;46.652;21.272;2023-05-16T12:48:38;14.43;;;6.25;;
71513;SDS011;59335;46.652;21.272;2023-05-16T12:51:49;18.65;;;6.25;;
71513;SDS011;59335;46.652;21.272;2023-05-16T12:54:56;18.08;;;6.47;;
71513;SDS011;59335;46.652;21.272;2023-05-16T12:57:59;13.20;;;5.78;;
71513;SDS011;59335;46.652;21.272;2023-05-16T13:01:03;15.00;;;6.10;;
71513;SDS011;59335;46.652;21.272;2023-05-16T13:04:07;17.23;;;5.95;;
71513;SDS011;59335;46.652;21.272;2023-05-16T13:07:10;16.80;;;6.32;;
71513;SDS011;59335;46.652;21.272;2023-05-16T13:10:14;13.75;;;5.70;;
71513;SDS011;59335;46.652;21.272;2023-05-16T13:13:17;13.80;;;5.95;;
71513;SDS011;59335;46.652;21.272;2023-05-16T13:16:37;12.23;;;5.80;;
71513;SDS011;59335;46.652;21.272;2023-05-16T13:19:40;14.88;;;5.45;;
71513;SDS011;59335;46.652;21.272;2023-05-16T13:22:43;13.50;;;5.97;;
71513;SDS011;59335;46.652;21.272;2023-05-16T13:25:48;12.57;;;5.93;;
71513;SDS011;59335;46.652;21.272;2023-05-16T13:28:51;13.95;;;5.88;;
71513;SDS011;59335;46.652;21.272;2023-05-16T13:31:55;16.67;;;6.07;;
71513;SDS011;59335;46.652;21.272;2023-05-16T13:34:58;14.13;;;6.05;;
71513;SDS011;59335;46.652;21.272;2023-05-16T13:38:01;14.18;;;5.65;;
71513;SDS011;59335;46.652;21.272;2023-05-16T13:41:05;13.07;;;5.82;;
71513;SDS011;59335;46.652;21.272;2023-05-16T13:44:10;13.02;;;5.55;;
71513;SDS011;59335;46.652;21.272;2023-05-16T13:47:17;15.30;;;5.27;;
71513;SDS011;59335;46.652;21.272;2023-05-16T13:50:20;13.27;;;5.90;;
71513;SDS011;59335;46.652;21.272;2023-05-16T13:53:23;18.17;;;5.93;;
71513;SDS011;59335;46.652;21.272;2023-05-16T13:56:25;13.55;;;5.90;;
71513;SDS011;59335;46.652;21.272;2023-05-16T13:59:28;15.05;;;5.68;;
71513;SDS011;59335;46.652;21.272;2023-05-16T14:02:51;13.57;;;5.13;;
71513;SDS011;59335;46.652;21.272;2023-05-16T14:05:54;15.40;;;5.90;;
71513;SDS011;59335;46.652;21.272;2023-05-16T14:08:56;12.90;;;5.25;;
71513;SDS011;59335;46.652;21.272;2023-05-16T14:11:59;11.23;;;5.47;;
71513;SDS011;59335;46.652;21.272;2023-05-16T14:15:04;13.60;;;5.57;;
71513;SDS011;59335;46.652;21.272;2023-05-16T14:18:07;14.20;;;5.77;;
71513;SDS011;59335;46.652;21.272;2023-05-16T14:21:10;12.55;;;5.25;;
71513;SDS011;59335;46.652;21.272;2023-05-16T14:24:14;16.42;;;5.88;;
71513;SDS011;59335;46.652;21.272;2023-05-16T14:27:16;11.65;;;5.28;;
71513;SDS011;59335;46.652;21.272;2023-05-16T14:30:19;14.32;;;5.65;;
71513;SDS011;59335;46.652;21.272;2023-05-16T14:33:22;13.37;;;5.30;;
71513;SDS011;59335;46.652;21.272;2023-05-16T14:36:24;15.18;;;5.47;;
71513;SDS011;59335;46.652;21.272;2023-05-16T14:39:27;13.77;;;5.60;;
71513;SDS011;59335;46.652;21.272;2023-05-16T14:42:30;13.75;;;5.40;;
71513;SDS011;59335;46.652;21.272;2023-05-16T14:45:32;11.55;;;4.72;;
71513;SDS011;59335;46.652;21.272;2023-05-16T14:48:35;16.23;;;5.57;;
71513;SDS011;59335;46.652;21.272;2023-05-16T14:51:38;10.57;;;5.22;;
71513;SDS011;59335;46.652;21.272;2023-05-16T14:54:40;13.10;;;6.25;;
71513;SDS011;59335;46.652;21.272;2023-05-16T14:57:43;12.45;;;5.40;;
71513;SDS011;59335;46.652;21.272;2023-05-16T15:00:47;11.48;;;4.90;;
71513;SDS011;59335;46.652;21.272;2023-05-16T15:03:49;11.83;;;5.23;;
71513;SDS011;59335;46.652;21.272;2023-05-16T15:06:57;10.73;;;4.82;;
71513;SDS011;59335;46.652;21.272;2023-05-16T15:10:00;11.75;;;5.03;;
71513;SDS011;59335;46.652;21.272;2023-05-16T15:13:03;10.57;;;4.78;;
71513;SDS011;59335;46.652;21.272;2023-05-16T15:16:05;13.68;;;5.68;;
71513;SDS011;59335;46.652;21.272;2023-05-16T15:19:08;13.90;;;5.47;;
71513;SDS011;59335;46.652;21.272;2023-05-16T15:22:11;17.35;;;5.80;;
71513;SDS011;59335;46.652;21.272;2023-05-16T15:25:14;15.02;;;5.82;;
71513;SDS011;59335;46.652;21.272;2023-05-16T15:28:17;13.85;;;5.75;;
71513;SDS011;59335;46.652;21.272;2023-05-16T15:31:23;16.38;;;6.05;;
71513;SDS011;59335;46.652;21.272;2023-05-16T15:34:27;18.40;;;6.00;;
71513;SDS011;59335;46.652;21.272;2023-05-16T15:37:30;15.15;;;5.38;;
71513;SDS011;59335;46.652;21.272;2023-05-16T15:40:32;13.27;;;5.28;;
71513;SDS011;59335;46.652;21.272;2023-05-16T15:43:35;14.57;;;5.97;;
71513;SDS011;59335;46.652;21.272;2023-05-16T15:46:37;19.52;;;6.05;;
71513;SDS011;59335;46.652;21.272;2023-05-16T15:49:40;18.47;;;5.60;;
71513;SDS011;59335;46.652;21.272;2023-05-16T15:52:44;14.35;;;5.38;;
71513;SDS011;59335;46.652;21.272;2023-05-16T15:55:47;12.77;;;5.55;;
71513;SDS011;59335;46.652;21.272;2023-05-16T15:58:49;14.07;;;5.15;;
71513;SDS011;59335;46.652;21.272;2023-05-16T16:01:52;14.25;;;5.60;;
71513;SDS011;59335;46.652;21.272;2023-05-16T16:04:55;16.73;;;5.80;;
71513;SDS011;59335;46.652;21.272;2023-05-16T16:07:58;13.88;;;5.50;;
71513;SDS011;59335;46.652;21.272;2023-05-16T16:11:01;12.85;;;6.10;;
71513;SDS011;59335;46.652;21.272;2023-05-16T16:14:04;13.48;;;4.93;;
71513;SDS011;59335;46.652;21.272;2023-05-16T16:17:09;13.38;;;5.47;;
71513;SDS011;59335;46.652;21.272;2023-05-16T16:20:12;12.87;;;5.47;;
71513;SDS011;59335;46.652;21.272;2023-05-16T16:23:15;12.13;;;5.25;;
71513;SDS011;59335;46.652;21.272;2023-05-16T16:26:18;11.07;;;5.15;;
71513;SDS011;59335;46.652;21.272;2023-05-16T16:29:21;11.07;;;5.53;;
71513;SDS011;59335;46.652;21.272;2023-05-16T16:32:25;12.05;;;5.47;;
71513;SDS011;59335;46.652;21.272;2023-05-16T16:35:28;17.53;;;5.63;;
71513;SDS011;59335;46.652;21.272;2023-05-16T16:38:32;10.80;;;4.93;;
71513;SDS011;59335;46.652;21.272;2023-05-16T16:41:36;14.98;;;5.50;;
71513;SDS011;59335;46.652;21.272;2023-05-16T16:44:39;15.15;;;5.70;;
71513;SDS011;59335;46.652;21.272;2023-05-16T16:47:42;13.57;;;5.60;;
71513;SDS011;59335;46.652;21.272;2023-05-16T16:50:46;15.23;;;6.00;;
71513;SDS011;59335;46.652;21.272;2023-05-16T16:53:49;12.27;;;5.32;;
71513;SDS011;59335;46.652;21.272;2023-05-16T16:56:54;14.43;;;5.75;;
71513;SDS011;59335;46.652;21.272;2023-05-16T16:59:58;13.40;;;5.43;;
71513;SDS011;59335;46.652;21.272;2023-05-16T17:03:02;12.57;;;5.30;;
71513;SDS011;59335;46.652;21.272;2023-05-16T17:06:07;13.87;;;5.40;;
71513;SDS011;59335;46.652;21.272;2023-05-16T17:09:10;10.63;;;4.72;;
71513;SDS011;59335;46.652;21.272;2023-05-16T17:12:18;11.75;;;5.00;;
71513;SDS011;59335;46.652;21.272;2023-05-16T17:15:23;14.23;;;5.80;;
71513;SDS011;59335;46.652;21.272;2023-05-16T17:18:28;14.23;;;5.80;;
71513;SDS011;59335;46.652;21.272;2023-05-16T17:21:36;15.07;;;5.47;;
71513;SDS011;59335;46.652;21.272;2023-05-16T17:24:42;15.88;;;5.70;;
71513;SDS011;59335;46.652;21.272;2023-05-16T17:27:46;12.93;;;5.20;;
71513;SDS011;59335;46.652;21.272;2023-05-16T17:30:51;12.50;;;5.30;;
71513;SDS011;59335;46.652;21.272;2023-05-16T17:33:55;13.95;;;5.30;;
71513;SDS011;59335;46.652;21.272;2023-05-16T17:37:01;15.07;;;5.80;;
71513;SDS011;59335;46.652;21.272;2023-05-16T17:40:08;13.13;;;5.72;;
71513;SDS011;59335;46.652;21.272;2023-05-16T17:43:20;13.07;;;5.53;;
71513;SDS011;59335;46.652;21.272;2023-05-16T17:46:24;12.55;;;5.50;;
71513;SDS011;59335;46.652;21.272;2023-05-16T17:49:29;11.13;;;5.80;;
71513;SDS011;59335;46.652;21.272;2023-05-16T17:52:34;12.87;;;5.70;;
71513;SDS011;59335;46.652;21.272;2023-05-16T17:55:38;12.05;;;5.18;;
71513;SDS011;59335;46.652;21.272;2023-05-16T17:58:42;12.77;;;5.25;;
71513;SDS011;59335;46.652;21.272;2023-05-16T18:01:46;10.80;;;4.93;;
71513;SDS011;59335;46.652;21.272;2023-05-16T18:04:50;10.25;;;5.22;;
71513;SDS011;59335;46.652;21.272;2023-05-16T18:07:54;12.40;;;5.00;;
71513;SDS011;59335;46.652;21.272;2023-05-16T18:10:59;10.85;;;4.63;;
71513;SDS011;59335;46.652;21.272;2023-05-16T18:14:02;14.82;;;5.60;;
71513;SDS011;59335;46.652;21.272;2023-05-16T18:17:08;13.15;;;5.50;;